createdAt,value
2022-12-03T00:01:14.302Z,98993.66
2022-12-03T00:03:41.013Z,98991.72
2022-12-03T00:06:07.922Z,98997.63
2022-12-03T00:08:35.041Z,98996.75
2022-12-03T00:11:01.550Z,98981.13
2022-12-03T00:13:28.080Z,98992.47
2022-12-03T00:15:54.837Z,98985.50
2022-12-03T00:18:21.425Z,98994.97
2022-12-03T00:20:47.994Z,98985.38
2022-12-03T00:23:14.563Z,98971.22
2022-12-03T00:25:41.108Z,98981.31
2022-12-03T00:28:07.743Z,98980.22
2022-12-03T00:30:34.343Z,98988.00
2022-12-03T00:33:00.829Z,98974.66
2022-12-03T00:35:27.370Z,98977.66
2022-12-03T00:37:54.800Z,98978.16
2022-12-03T00:40:21.410Z,98977.25
2022-12-03T00:42:47.933Z,98987.16
2022-12-03T00:45:14.526Z,98979.69
2022-12-03T00:47:41.014Z,98981.72
2022-12-03T00:50:08.335Z,98980.22
2022-12-03T00:52:34.934Z,98972.69
2022-12-03T00:55:01.505Z,98971.97
2022-12-03T00:57:28.164Z,98974.28
2022-12-03T00:59:54.754Z,98988.16
2022-12-03T01:02:21.616Z,98976.69
2022-12-03T01:04:48.377Z,98981.72
2022-12-03T01:07:14.957Z,98983.81
2022-12-03T01:09:41.432Z,98972.69
2022-12-03T01:12:07.908Z,98975.38
2022-12-03T01:14:34.457Z,98980.84
2022-12-03T01:17:00.996Z,98979.41
2022-12-03T01:19:27.592Z,98967.75
2022-12-03T01:21:55.509Z,98973.91
2022-12-03T01:24:22.486Z,98972.69
2022-12-03T01:26:49.024Z,98960.50
2022-12-03T01:29:15.726Z,98962.13
2022-12-03T01:32:01.124Z,98957.72
2022-12-03T01:34:27.679Z,98962.72
2022-12-03T01:36:54.227Z,98966.88
2022-12-03T01:39:20.958Z,98970.47
2022-12-03T01:41:49.606Z,98964.38
2022-12-03T01:44:28.590Z,98970.41
2022-12-03T01:46:57.132Z,98957.41
2022-12-03T01:49:27.533Z,98959.88
2022-12-03T01:51:55.383Z,98967.13
2022-12-03T01:54:27.345Z,98967.56
2022-12-03T01:56:55.149Z,98963.88
2022-12-03T01:59:26.193Z,98961.31
2022-12-03T02:01:52.849Z,98969.66
2022-12-03T02:04:21.971Z,98959.69
2022-12-03T02:06:48.693Z,98959.69
2022-12-03T02:09:15.146Z,98970.06
2022-12-03T02:11:47.365Z,98965.75
2022-12-03T02:14:18.265Z,98956.31
2022-12-03T02:16:45.188Z,98962.38
2022-12-03T02:19:29.823Z,98955.88
2022-12-03T02:22:19.234Z,98970.00
2022-12-03T02:25:12.393Z,98969.53
2022-12-03T02:27:39.830Z,98955.78
2022-12-03T02:30:07.863Z,98967.63
2022-12-03T02:32:34.460Z,98958.00
2022-12-03T02:35:01.018Z,98960.50
2022-12-03T02:37:34.088Z,98959.69
2022-12-03T02:40:07.865Z,98962.13
2022-12-03T02:42:37.329Z,98966.59
2022-12-03T02:45:07.092Z,98968.50
2022-12-03T02:47:41.792Z,98958.28
2022-12-03T02:50:10.499Z,98964.72
2022-12-03T02:52:37.255Z,98956.09
2022-12-03T02:55:07.254Z,98956.66
2022-12-03T02:57:36.068Z,98960.50
2022-12-03T03:00:02.643Z,98956.63
2022-12-03T03:02:29.235Z,98953.13
2022-12-03T03:04:56.949Z,98954.53
2022-12-03T03:07:23.430Z,98957.78
2022-12-03T03:09:50.027Z,98960.41
2022-12-03T03:12:16.939Z,98960.78
2022-12-03T03:14:43.561Z,98945.34
2022-12-03T03:17:10.155Z,98947.66
2022-12-03T03:19:36.625Z,98957.53
2022-12-03T03:22:03.232Z,98959.53
2022-12-03T03:24:29.815Z,98954.19
2022-12-03T03:26:56.420Z,98954.91
2022-12-03T03:29:22.961Z,98958.81
2022-12-03T03:31:49.803Z,98962.06
2022-12-03T03:34:17.510Z,98959.13
2022-12-03T03:36:45.041Z,98960.91
2022-12-03T03:39:12.437Z,98955.13
2022-12-03T03:41:39.049Z,98956.13
2022-12-03T03:44:07.501Z,98952.88
2022-12-03T03:46:35.020Z,98954.91
2022-12-03T03:49:02.799Z,98956.41
2022-12-03T03:51:29.662Z,98951.44
2022-12-03T03:53:56.597Z,98948.56
2022-12-03T03:56:23.617Z,98952.09
2022-12-03T03:58:50.257Z,98956.69
2022-12-03T04:01:18.306Z,98951.88
2022-12-03T04:03:45.066Z,98946.53
2022-12-03T04:06:11.802Z,98946.44
2022-12-03T04:08:38.357Z,98944.06
2022-12-03T04:11:23.859Z,98938.34
2022-12-03T04:13:50.371Z,98939.25
2022-12-03T04:16:17.018Z,98944.63
2022-12-03T04:18:43.542Z,98942.44
2022-12-03T04:21:34.039Z,98936.59
2022-12-03T04:24:00.872Z,98935.69
2022-12-03T04:26:46.388Z,98930.09
2022-12-03T04:29:13.592Z,98933.47
2022-12-03T04:31:59.450Z,98937.06
2022-12-03T04:34:44.631Z,98938.06
2022-12-03T04:37:11.544Z,98939.69
2022-12-03T04:39:38.026Z,98931.97
2022-12-03T04:42:05.816Z,98942.59
2022-12-03T04:44:38.741Z,98930.47
2022-12-03T04:47:20.220Z,98935.97
2022-12-03T04:49:49.098Z,98942.50
2022-12-03T04:52:17.889Z,98941.97
2022-12-03T04:54:45.258Z,98941.19
2022-12-03T04:57:12.501Z,98938.56
2022-12-03T04:59:39.693Z,98939.34
2022-12-03T05:02:06.738Z,98948.59
2022-12-03T05:04:33.560Z,98934.59
2022-12-03T05:07:00.105Z,98932.25
2022-12-03T05:09:26.698Z,98930.69
2022-12-03T05:11:53.222Z,98922.03
2022-12-03T05:14:19.913Z,98927.78
2022-12-03T05:16:46.539Z,98924.59
2022-12-03T05:19:13.192Z,98925.22
2022-12-03T05:21:39.707Z,98927.59
2022-12-03T05:24:06.458Z,98934.16
2022-12-03T05:26:33.005Z,98918.88
2022-12-03T05:28:59.504Z,98929.91
2022-12-03T05:31:26.143Z,98933.59
2022-12-03T05:33:52.769Z,98921.41
2022-12-03T05:36:19.285Z,98927.59
2022-12-03T05:38:45.785Z,98924.72
2022-12-03T05:41:30.693Z,98917.88
2022-12-03T05:43:57.296Z,98920.19
2022-12-03T05:46:23.965Z,98915.38
2022-12-03T05:48:50.639Z,98911.28
2022-12-03T05:51:17.186Z,98911.81
2022-12-03T05:53:43.709Z,98908.50
2022-12-03T05:56:10.292Z,98906.78
2022-12-03T05:58:36.794Z,98906.91
2022-12-03T06:01:03.371Z,98905.09
2022-12-03T06:03:30.029Z,98908.78
2022-12-03T06:05:56.595Z,98906.03
2022-12-03T06:08:23.134Z,98910.25
2022-12-03T06:10:49.691Z,98909.28
2022-12-03T06:13:16.232Z,98908.03
2022-12-03T06:15:44.095Z,98913.94
2022-12-03T06:18:11.092Z,98911.16
2022-12-03T06:20:37.809Z,98912.25
2022-12-03T06:23:04.253Z,98911.53
2022-12-03T06:25:30.781Z,98919.38
2022-12-03T06:27:57.363Z,98918.09
2022-12-03T06:30:24.007Z,98912.72
2022-12-03T06:32:50.492Z,98916.72
2022-12-03T06:35:17.218Z,98914.69
2022-12-03T06:37:43.782Z,98918.03
2022-12-03T06:40:10.893Z,98919.88
2022-12-03T06:42:37.433Z,98919.66
2022-12-03T06:45:04.459Z,98921.28
2022-12-03T06:47:30.953Z,98917.41
2022-12-03T06:49:57.468Z,98917.69
2022-12-03T06:52:24.080Z,98922.22
2022-12-03T06:54:50.809Z,98918.91
2022-12-03T06:57:17.491Z,98919.38
2022-12-03T06:59:44.015Z,98920.75
2022-12-03T07:02:12.450Z,98919.88
2022-12-03T07:04:42.117Z,98920.06
2022-12-03T07:07:12.573Z,98920.22
2022-12-03T07:09:39.209Z,98925.44
2022-12-03T07:12:06.018Z,98918.09
2022-12-03T07:14:32.572Z,98919.66
2022-12-03T07:16:59.181Z,98915.25
2022-12-03T07:19:32.099Z,98918.50
2022-12-03T07:21:59.278Z,98923.13
2022-12-03T07:24:25.863Z,98927.56
2022-12-03T07:26:52.406Z,98926.03
2022-12-03T07:29:19.087Z,98918.56
2022-12-03T07:31:45.976Z,98914.41
2022-12-03T07:34:12.555Z,98921.63
2022-12-03T07:36:39.120Z,98919.13
2022-12-03T07:39:05.668Z,98913.50
2022-12-03T07:41:32.347Z,98922.91
2022-12-03T07:43:58.946Z,98921.34
2022-12-03T07:46:25.645Z,98920.06
2022-12-03T07:48:52.256Z,98919.41
2022-12-03T07:51:18.956Z,98925.44
2022-12-03T07:53:45.514Z,98928.41
2022-12-03T07:56:12.233Z,98928.28
2022-12-03T07:58:38.794Z,98924.75
2022-12-03T08:01:05.704Z,98926.84
2022-12-03T08:03:32.285Z,98930.97
2022-12-03T08:05:58.653Z,98922.22
2022-12-03T08:08:25.085Z,98924.69
2022-12-03T08:10:51.672Z,98921.66
2022-12-03T08:13:19.089Z,98914.13
2022-12-03T08:15:46.093Z,98917.00
2022-12-03T08:18:16.105Z,98914.00
2022-12-03T08:20:43.879Z,98903.91
2022-12-03T08:23:30.636Z,98903.28
2022-12-03T08:26:02.085Z,98898.81
2022-12-03T08:28:28.682Z,98890.00
2022-12-03T08:31:13.662Z,98903.88
2022-12-03T08:33:41.739Z,98894.84
2022-12-03T08:36:13.859Z,98901.28
2022-12-03T08:38:40.271Z,98897.59
2022-12-03T08:41:14.936Z,98900.94
2022-12-03T08:43:43.713Z,98905.06
2022-12-03T08:46:19.057Z,98901.91
2022-12-03T08:48:49.131Z,98906.69
2022-12-03T08:51:20.592Z,98903.09
2022-12-03T08:53:58.135Z,98899.22
2022-12-03T08:56:30.002Z,98916.81
2022-12-03T08:59:15.618Z,98909.41
2022-12-03T09:01:44.319Z,98910.94
2022-12-03T09:04:32.041Z,98924.59
2022-12-03T09:06:58.668Z,98906.59
2022-12-03T09:09:25.544Z,98911.84
2022-12-03T09:11:52.519Z,98910.81
2022-12-03T09:14:21.211Z,98910.47
2022-12-03T09:16:48.000Z,98908.47
2022-12-03T09:19:14.525Z,98914.00
2022-12-03T09:21:40.970Z,98912.81
2022-12-03T09:24:07.574Z,98912.38
2022-12-03T09:26:34.173Z,98910.47
2022-12-03T09:29:00.611Z,98912.25
2022-12-03T09:31:27.166Z,98913.22
2022-12-03T09:33:53.858Z,98913.09
2022-12-03T09:36:20.474Z,98910.06
2022-12-03T09:38:48.213Z,98906.72
2022-12-03T09:41:15.120Z,98896.16
2022-12-03T09:46:29.791Z,98906.75
2022-12-03T09:48:56.720Z,98908.34
2022-12-03T09:51:29.640Z,98904.31
2022-12-03T09:53:56.119Z,98901.00
2022-12-03T09:56:23.518Z,98896.75
2022-12-03T09:58:50.178Z,98902.06
2022-12-03T10:01:17.865Z,98896.22
2022-12-03T10:03:47.942Z,98894.25
2022-12-03T10:06:18.319Z,98895.47
2022-12-03T10:08:48.376Z,98895.75
2022-12-03T10:11:16.165Z,98883.44
2022-12-03T10:13:43.214Z,98882.53
2022-12-03T10:16:13.276Z,98883.97
2022-12-03T10:18:42.284Z,98882.47
2022-12-03T10:21:24.011Z,98883.69
2022-12-03T10:24:10.465Z,98876.19
2022-12-03T10:26:40.702Z,98883.06
2022-12-03T10:29:32.885Z,98869.34
2022-12-03T10:32:06.804Z,98870.09
2022-12-03T10:34:36.238Z,98863.00
2022-12-03T10:37:22.572Z,98869.22
2022-12-03T10:40:09.885Z,98869.47
2022-12-03T10:42:37.446Z,98862.22
2022-12-03T10:45:23.206Z,98858.75
2022-12-03T10:48:05.727Z,98862.44
2022-12-03T10:50:33.292Z,98853.47
2022-12-03T10:52:59.809Z,98860.44
2022-12-03T10:55:28.977Z,98858.50
2022-12-03T10:57:55.513Z,98868.28
2022-12-03T11:00:22.827Z,98863.00
2022-12-03T11:02:56.500Z,98862.75
2022-12-03T11:05:27.469Z,98864.25
2022-12-03T11:07:54.398Z,98863.19
2022-12-03T11:10:21.339Z,98871.19
2022-12-03T11:13:25.687Z,98851.44
2022-12-03T11:15:53.201Z,98857.19
2022-12-03T11:18:38.045Z,98851.19
2022-12-03T11:21:08.074Z,98854.97
2022-12-03T11:23:47.002Z,98850.22
2022-12-03T11:26:33.830Z,98843.19
2022-12-03T11:29:00.415Z,98850.19
2022-12-03T11:31:44.893Z,98847.72
2022-12-03T11:34:20.869Z,98839.75
2022-12-03T11:37:12.502Z,98842.03
2022-12-03T11:39:45.364Z,98833.75
2022-12-03T11:42:27.018Z,98832.28
2022-12-03T11:45:02.706Z,98838.53
2022-12-03T11:47:39.610Z,98827.00
2022-12-03T11:50:23.630Z,98833.53
2022-12-03T11:52:55.589Z,98832.28
2022-12-03T11:55:28.564Z,98827.22
2022-12-03T11:58:03.857Z,98827.03
2022-12-03T12:00:30.552Z,98834.84
2022-12-03T12:02:58.621Z,98828.34
2022-12-03T12:05:27.245Z,98823.53
2022-12-03T12:07:55.593Z,98817.53
2022-12-03T12:10:41.123Z,98811.06
2022-12-03T12:13:25.619Z,98824.28
2022-12-03T12:15:52.203Z,98818.53
2022-12-03T12:18:36.895Z,98825.56
2022-12-03T12:21:43.227Z,98818.34
2022-12-03T12:24:40.093Z,98821.09
2022-12-03T12:27:20.414Z,98813.34
2022-12-03T12:29:52.981Z,98813.09
2022-12-03T12:32:24.996Z,98812.78
2022-12-03T12:34:55.176Z,98804.06
2022-12-03T12:37:28.232Z,98803.34
2022-12-03T12:39:57.458Z,98797.84
2022-12-03T12:42:36.920Z,98799.34
2022-12-03T12:45:21.419Z,98790.09
2022-12-03T12:48:03.150Z,98793.84
2022-12-03T12:50:31.209Z,98788.34
2022-12-03T12:53:02.748Z,98790.31
2022-12-03T12:55:29.302Z,98783.09
2022-12-03T12:58:03.411Z,98790.84
2022-12-03T13:00:30.145Z,98775.81
2022-12-03T13:03:00.975Z,98780.81
2022-12-03T13:05:44.935Z,98772.31
2022-12-03T13:08:29.052Z,98775.06
2022-12-03T13:10:57.827Z,98765.53
2022-12-03T13:13:43.367Z,98772.81
2022-12-03T13:16:19.357Z,98773.56
2022-12-03T13:18:49.004Z,98767.56
2022-12-03T13:21:21.406Z,98772.03
2022-12-03T13:23:49.596Z,98773.56
2022-12-03T13:26:38.990Z,98776.00
2022-12-03T13:29:12.209Z,98772.56
2022-12-03T13:31:43.440Z,98774.50
2022-12-03T13:34:21.236Z,98777.00
2022-12-03T13:39:37.923Z,98773.25
2022-12-03T13:42:45.746Z,98773.97
2022-12-03T13:45:15.362Z,98766.00
2022-12-03T13:47:45.841Z,98769.75
2022-12-03T13:50:27.533Z,98771.75
2022-12-03T13:52:55.049Z,98781.00
2022-12-03T13:55:31.773Z,98781.03
2022-12-03T13:57:58.901Z,98772.25
2022-12-03T14:00:25.428Z,98775.53
2022-12-03T14:02:51.990Z,98776.78
2022-12-03T14:05:19.101Z,98783.72
2022-12-03T14:07:45.608Z,98777.00
2022-12-03T14:10:12.945Z,98776.72
2022-12-03T14:12:39.485Z,98777.50
2022-12-03T14:15:07.139Z,98775.72
2022-12-03T14:17:33.716Z,98770.97
2022-12-03T14:20:01.425Z,98781.44
2022-12-03T14:22:28.046Z,98774.94
2022-12-03T14:24:55.412Z,98781.22
2022-12-03T14:27:22.410Z,98777.47
2022-12-03T14:29:48.949Z,98784.47
2022-12-03T14:32:15.521Z,98775.72
2022-12-03T14:34:42.347Z,98771.00
2022-12-03T14:37:08.819Z,98773.47
2022-12-03T14:39:35.325Z,98779.97
2022-12-03T14:42:14.023Z,98772.97
2022-12-03T14:44:51.294Z,98771.22
2022-12-03T14:47:22.421Z,98769.47
2022-12-03T14:49:50.484Z,98774.72
2022-12-03T14:52:17.772Z,98766.22
2022-12-03T14:54:44.543Z,98763.69
2022-12-03T14:57:12.868Z,98764.72
2022-12-03T14:59:41.641Z,98774.44
2022-12-03T15:02:09.708Z,98777.97
2022-12-03T15:04:36.400Z,98775.72
2022-12-03T15:07:03.656Z,98774.72
2022-12-03T15:09:30.131Z,98773.72
2022-12-03T15:11:56.735Z,98772.00
2022-12-03T15:14:23.308Z,98769.25
2022-12-03T15:16:50.035Z,98774.94
2022-12-03T15:19:17.260Z,98773.47
2022-12-03T15:21:43.810Z,98773.22
2022-12-03T15:24:10.807Z,98780.69
2022-12-03T15:26:37.531Z,98773.69
2022-12-03T15:29:04.058Z,98780.97
2022-12-03T15:31:30.712Z,98773.22
2022-12-03T15:33:57.272Z,98774.47
2022-12-03T15:36:23.819Z,98771.47
2022-12-03T15:38:50.449Z,98769.97
2022-12-03T15:41:29.582Z,98767.25
2022-12-03T15:43:58.492Z,98756.97
2022-12-03T15:46:26.221Z,98763.50
2022-12-03T15:48:53.077Z,98759.97
2022-12-03T15:51:19.677Z,98756.50
2022-12-03T15:53:46.306Z,98769.22
2022-12-03T15:56:12.918Z,98760.97
2022-12-03T15:58:40.154Z,98758.25
2022-12-03T16:01:08.105Z,98756.75
2022-12-03T16:03:35.353Z,98768.00
2022-12-03T16:06:02.139Z,98773.00
2022-12-03T16:08:28.760Z,98767.22
2022-12-03T16:10:55.565Z,98768.75
2022-12-03T16:13:22.107Z,98765.53
2022-12-03T16:15:48.559Z,98761.50
2022-12-03T16:18:15.081Z,98764.50
2022-12-03T16:20:41.664Z,98758.25
2022-12-03T16:23:08.335Z,98765.75
2022-12-03T16:25:34.904Z,98762.72
2022-12-03T16:28:01.288Z,98762.75
2022-12-03T16:30:27.752Z,98768.50
2022-12-03T16:32:54.249Z,98759.25
2022-12-03T16:35:20.643Z,98759.03
2022-12-03T16:37:47.122Z,98761.06
2022-12-03T16:40:13.663Z,98760.50
2022-12-03T16:42:40.770Z,98753.50
2022-12-03T16:45:08.127Z,98752.28
2022-12-03T16:47:35.305Z,98754.25
2022-12-03T16:50:03.953Z,98753.50
2022-12-03T16:52:30.544Z,98759.25
2022-12-03T16:54:57.041Z,98755.06
2022-12-03T16:57:24.383Z,98752.03
2022-12-03T16:59:53.304Z,98757.28
2022-12-03T17:02:20.172Z,98752.81
2022-12-03T17:04:46.594Z,98755.53
2022-12-03T17:07:12.938Z,98745.03
2022-12-03T17:09:39.438Z,98740.78
2022-12-03T17:12:06.168Z,98748.53
2022-12-03T17:14:33.564Z,98747.03
2022-12-03T17:17:00.171Z,98744.78
2022-12-03T17:19:26.631Z,98750.53
2022-12-03T17:21:54.006Z,98750.53
2022-12-03T17:24:21.430Z,98748.53
2022-12-03T17:26:48.071Z,98753.25
2022-12-03T17:29:14.501Z,98746.03
2022-12-03T17:31:42.464Z,98742.78
2022-12-03T17:34:09.369Z,98740.53
2022-12-03T17:36:35.852Z,98744.28
2022-12-03T17:39:02.266Z,98731.50
2022-12-03T17:41:28.653Z,98735.50
2022-12-03T17:43:55.072Z,98729.53
2022-12-03T17:46:21.621Z,98734.25
2022-12-03T17:48:48.064Z,98736.53
2022-12-03T17:51:14.677Z,98735.50
2022-12-03T17:53:41.163Z,98734.00
2022-12-03T17:56:07.646Z,98739.03
2022-12-03T17:58:34.671Z,98727.00
2022-12-03T18:01:03.169Z,98727.78
2022-12-03T18:03:30.317Z,98726.03
2022-12-03T18:05:56.858Z,98722.28
2022-12-03T18:08:23.334Z,98724.28
2022-12-03T18:10:50.160Z,98724.03
2022-12-03T18:13:16.578Z,98722.28
2022-12-03T18:15:43.020Z,98725.50
2022-12-03T18:18:09.450Z,98717.78
2022-12-03T18:20:35.962Z,98721.78
2022-12-03T18:23:02.539Z,98717.53
2022-12-03T18:25:29.619Z,98720.50
2022-12-03T18:27:56.406Z,98721.03
2022-12-03T18:30:22.909Z,98720.03
2022-12-03T18:32:50.607Z,98726.03
2022-12-03T18:35:17.113Z,98719.53
2022-12-03T18:37:43.750Z,98721.75
2022-12-03T18:40:17.898Z,98730.00
2022-12-03T18:42:44.348Z,98721.25
2022-12-03T18:45:12.854Z,98717.75
2022-12-03T18:47:39.285Z,98720.03
2022-12-03T18:50:07.234Z,98716.53
2022-12-03T18:52:33.675Z,98716.53
2022-12-03T18:55:00.063Z,98719.00
2022-12-03T18:57:26.714Z,98721.75
2022-12-03T18:59:53.447Z,98720.50
2022-12-03T19:03:01.956Z,98722.00
2022-12-03T19:05:10.402Z,98718.00
2022-12-03T19:07:37.158Z,98710.50
2022-12-03T19:10:04.340Z,98721.50
2022-12-03T19:12:31.196Z,98721.00
2022-12-03T19:14:57.555Z,98717.50
2022-12-03T19:17:24.039Z,98727.28
2022-12-03T19:19:50.470Z,98720.78
2022-12-03T19:22:16.856Z,98722.00
2022-12-03T19:24:43.783Z,98723.25
2022-12-03T19:27:10.294Z,98722.50
2022-12-03T19:29:36.732Z,98723.50
2022-12-03T19:32:04.016Z,98725.28
2022-12-03T19:34:30.928Z,98726.25
2022-12-03T19:36:57.884Z,98718.03
2022-12-03T19:39:24.771Z,98720.78
2022-12-03T19:41:51.393Z,98718.50
2022-12-03T19:44:18.923Z,98720.25
2022-12-03T19:46:45.374Z,98721.00
2022-12-03T19:49:11.965Z,98721.00
2022-12-03T19:51:38.399Z,98728.78
2022-12-03T19:54:07.316Z,98730.75
2022-12-03T19:56:33.880Z,98727.28
2022-12-03T19:59:00.348Z,98727.25
2022-12-03T20:01:30.105Z,98729.00
2022-12-03T20:03:58.929Z,98726.25
2022-12-03T20:06:28.519Z,98730.28
2022-12-03T20:08:59.710Z,98716.53
2022-12-03T20:11:29.372Z,98721.25
2022-12-03T20:13:59.180Z,98723.78
2022-12-03T20:16:26.514Z,98725.78
2022-12-03T20:18:57.218Z,98718.25
2022-12-03T20:21:24.205Z,98728.03
2022-12-03T20:23:50.779Z,98727.78
2022-12-03T20:26:19.667Z,98726.75
2022-12-03T20:28:47.985Z,98724.03
2022-12-03T20:31:17.064Z,98714.25
2022-12-03T20:33:49.034Z,98718.25
2022-12-03T20:36:16.729Z,98723.03
2022-12-03T20:38:43.158Z,98718.00
2022-12-03T20:41:12.431Z,98715.50
2022-12-03T20:43:39.155Z,98718.00
2022-12-03T20:46:07.638Z,98715.75
2022-12-03T20:48:34.361Z,98718.03
2022-12-03T20:51:06.774Z,98710.50
2022-12-03T20:53:33.550Z,98713.00
2022-12-03T20:56:01.332Z,98714.53
2022-12-03T20:58:29.411Z,98713.75
2022-12-03T21:00:55.955Z,98714.00
2022-12-03T21:03:22.497Z,98710.50
2022-12-03T21:05:49.476Z,98709.75
2022-12-03T21:08:15.906Z,98705.28
2022-12-03T21:10:45.537Z,98708.75
2022-12-03T21:13:16.649Z,98711.00
2022-12-03T21:15:43.985Z,98711.50
2022-12-03T21:18:12.252Z,98704.75
2022-12-03T21:20:46.352Z,98702.00
2022-12-03T21:23:13.975Z,98710.28
2022-12-03T21:25:40.538Z,98702.53
2022-12-03T21:28:08.699Z,98711.03
2022-12-03T21:30:38.487Z,98704.75
2022-12-03T21:33:05.959Z,98701.72
2022-12-03T21:35:35.517Z,98704.22
2022-12-03T21:38:01.982Z,98704.03
2022-12-03T21:40:28.336Z,98708.72
2022-12-03T21:42:54.841Z,98698.25
2022-12-03T21:45:24.913Z,98696.00
2022-12-03T21:47:51.466Z,98691.00
2022-12-03T21:50:17.982Z,98701.53
2022-12-03T21:52:44.397Z,98701.53
2022-12-03T21:55:10.833Z,98696.50
2022-12-03T21:57:37.629Z,98694.75
2022-12-03T22:00:07.596Z,98697.00
2022-12-03T22:02:34.407Z,98696.00
2022-12-03T22:05:00.853Z,98693.25
2022-12-03T22:07:27.356Z,98697.00
2022-12-03T22:09:54.005Z,98687.00
2022-12-03T22:12:20.716Z,98695.75
2022-12-03T22:14:47.498Z,98693.25
2022-12-03T22:17:13.969Z,98694.50
2022-12-03T22:19:40.439Z,98688.22
2022-12-03T22:22:06.922Z,98694.25
2022-12-03T22:24:33.406Z,98691.00
2022-12-03T22:26:59.912Z,98698.25
2022-12-03T22:29:26.351Z,98693.50
2022-12-03T22:31:52.799Z,98696.75
2022-12-03T22:34:19.231Z,98689.75
2022-12-03T22:36:45.588Z,98700.03
2022-12-03T22:39:11.953Z,98696.50
2022-12-03T22:41:38.918Z,98698.25
2022-12-03T22:44:05.508Z,98689.22
2022-12-03T22:46:32.083Z,98685.50
2022-12-03T22:49:03.474Z,98682.22
2022-12-03T22:51:33.676Z,98675.97
2022-12-03T22:54:01.695Z,98668.72
2022-12-03T22:56:30.377Z,98665.72
2022-12-03T22:58:57.695Z,98674.97
2022-12-03T23:01:26.817Z,98666.72
2022-12-03T23:03:53.749Z,98667.22
2022-12-03T23:06:20.711Z,98669.44
2022-12-03T23:08:47.672Z,98662.47
2022-12-03T23:11:14.637Z,98656.44
2022-12-03T23:13:41.421Z,98656.44
2022-12-03T23:16:13.067Z,98642.16
2022-12-03T23:18:39.583Z,98644.44
2022-12-03T23:21:06.140Z,98639.66
2022-12-03T23:23:32.561Z,98644.69
2022-12-03T23:26:10.580Z,98652.19
2022-12-03T23:28:38.748Z,98642.66
2022-12-03T23:31:06.089Z,98637.69
2022-12-03T23:33:38.024Z,98635.16
2022-12-03T23:36:08.085Z,98637.13
2022-12-03T23:38:34.462Z,98640.69
2022-12-03T23:41:05.833Z,98640.19
2022-12-03T23:43:32.309Z,98627.19
2022-12-03T23:46:10.570Z,98617.69
2022-12-03T23:48:37.371Z,98624.41
2022-12-03T23:51:08.660Z,98631.97
2022-12-03T23:53:36.336Z,98629.69
2022-12-03T23:56:11.451Z,98617.41
2022-12-03T23:58:38.631Z,98617.41
